Time;durP1;ratioP1;P1;durP2;ratioP2;P2;SDS_P1;SDS_P2;PMS_P1;PMS_P2;Temp;Humidity;BMP_temperature;BMP_pressure;BME280_temperature;BME280_humidity;BME280_pressure;Samples;Min_cycle;Max_cycle;Signal;HPM_P1;HPM_P2
2023/07/11 00:02:23;;;;;;;6.07;1.80;;;15.40;99.90;;;;;;5095274;28;20123;-65
2023/07/11 00:04:49;;;;;;;5.38;2.28;;;15.40;99.90;;;;;;5077257;28;20086;-65
2023/07/11 00:07:15;;;;;;;7.88;2.15;;;15.40;99.90;;;;;;5111326;28;20079;-66
2023/07/11 00:09:42;;;;;;;6.72;2.20;;;15.40;99.90;;;;;;5073232;28;20056;-66
2023/07/11 00:12:08;;;;;;;7.82;2.28;;;15.40;99.90;;;;;;5055393;28;20050;-64
2023/07/11 00:14:36;;;;;;;6.35;2.65;;;15.40;99.90;;;;;;5059004;28;20485;-65
2023/07/11 00:17:03;;;;;;;6.97;1.85;;;15.30;99.90;;;;;;5058610;28;20592;-66
2023/07/11 00:19:31;;;;;;;14.48;2.90;;;15.30;99.90;;;;;;5057807;28;20048;-67
2023/07/11 00:21:57;;;;;;;4.22;1.95;;;15.30;99.90;;;;;;5080777;28;20147;-67
2023/07/11 00:24:23;;;;;;;8.77;2.30;;;15.30;99.90;;;;;;5077110;28;20062;-68
2023/07/11 00:26:48;;;;;;;7.57;2.08;;;15.30;99.90;;;;;;5082564;28;20055;-67
2023/07/11 00:29:18;;;;;;;7.13;1.92;;;15.30;99.90;;;;;;5076545;28;20413;-66
2023/07/11 00:31:44;;;;;;;5.05;1.42;;;15.30;99.90;;;;;;5053671;28;20049;-65
2023/07/11 00:34:10;;;;;;;8.68;1.65;;;15.30;99.90;;;;;;5060340;28;20500;-63
2023/07/11 00:36:36;;;;;;;5.15;1.58;;;15.30;99.90;;;;;;5061233;28;20048;-67
2023/07/11 00:39:03;;;;;;;4.47;1.15;;;15.40;99.90;;;;;;5069909;28;20043;-66
2023/07/11 00:41:29;;;;;;;5.82;1.40;;;15.40;99.90;;;;;;5060500;28;20062;-68
2023/07/11 00:43:55;;;;;;;5.97;1.08;;;15.40;99.90;;;;;;5060728;28;20435;-66
2023/07/11 00:46:21;;;;;;;7.15;1.10;;;15.50;99.90;;;;;;5060658;28;20079;-66
2023/07/11 00:48:56;;;;;;;4.28;1.05;;;15.40;99.90;;;;;;5059945;28;20044;-67
2023/07/11 00:51:35;;;;;;;4.13;1.27;;;15.40;99.90;;;;;;5075841;28;20047;-65
2023/07/11 00:54:03;;;;;;;5.03;1.20;;;15.40;99.90;;;;;;5083390;28;20075;-64
2023/07/11 00:56:34;;;;;;;15.75;2.05;;;15.40;99.90;;;;;;5060473;28;20052;-67
2023/07/11 00:59:01;;;;;;;6.53;1.20;;;15.40;99.90;;;;;;5069524;28;20117;-67
2023/07/11 01:01:27;;;;;;;3.88;1.00;;;15.40;99.90;;;;;;5057549;28;20040;-66
2023/07/11 01:03:55;;;;;;;5.35;1.13;;;15.40;99.90;;;;;;5076588;28;20046;-67
2023/07/11 01:06:25;;;;;;;6.20;0.98;;;15.40;99.90;;;;;;5052036;28;20083;-65
2023/07/11 01:08:53;;;;;;;5.72;1.20;;;15.40;99.90;;;;;;5055206;28;20063;-67
2023/07/11 01:11:21;;;;;;;5.18;1.30;;;15.40;99.90;;;;;;5059118;28;20052;-67
2023/07/11 01:13:49;;;;;;;5.20;1.20;;;15.40;99.90;;;;;;5059368;28;20059;-67
2023/07/11 01:16:15;;;;;;;3.45;1.60;;;15.40;99.90;;;;;;5083212;28;20129;-67
2023/07/11 01:18:41;;;;;;;5.00;1.30;;;15.40;99.90;;;;;;5059275;28;20568;-69
2023/07/11 01:21:08;;;;;;;9.63;1.35;;;15.30;99.90;;;;;;5080204;28;20052;-66
2023/07/11 01:23:34;;;;;;;3.13;1.25;;;15.30;99.90;;;;;;5075114;28;20572;-68
2023/07/11 01:26:20;;;;;;;5.65;1.55;;;15.40;99.90;;;;;;5063659;28;20070;-67
2023/07/11 01:28:46;;;;;;;5.45;1.27;;;15.40;99.90;;;;;;5074894;28;20055;-66
2023/07/11 01:31:13;;;;;;;4.63;2.22;;;15.40;99.90;;;;;;5059801;28;20047;-68
2023/07/11 01:33:39;;;;;;;3.83;1.10;;;15.40;99.90;;;;;;5076966;28;20131;-65
2023/07/11 01:36:05;;;;;;;4.75;1.10;;;15.50;99.90;;;;;;5052775;28;20484;-68
2023/07/11 01:38:31;;;;;;;5.97;1.63;;;15.50;99.90;;;;;;5076389;28;20048;-68
2023/07/11 01:40:56;;;;;;;5.07;1.60;;;15.40;99.90;;;;;;5076048;28;20052;-66
2023/07/11 01:43:22;;;;;;;4.43;1.27;;;15.40;99.90;;;;;;5076945;28;20083;-67
2023/07/11 01:45:49;;;;;;;3.47;1.23;;;15.40;99.90;;;;;;5076031;28;20385;-65
2023/07/11 01:48:15;;;;;;;6.30;1.38;;;15.40;99.90;;;;;;5058671;28;20056;-69
2023/07/11 01:50:41;;;;;;;5.30;1.58;;;15.40;99.90;;;;;;5060383;28;20048;-65
2023/07/11 01:53:07;;;;;;;4.75;1.05;;;15.40;99.90;;;;;;5058650;28;20051;-66
2023/07/11 01:55:32;;;;;;;4.43;1.45;;;15.40;99.90;;;;;;5061768;28;20083;-64
2023/07/11 01:57:58;;;;;;;6.20;1.27;;;15.40;99.90;;;;;;5076312;28;20048;-68
2023/07/11 02:00:24;;;;;;;5.85;1.80;;;15.40;99.90;;;;;;5076925;28;20060;-65
2023/07/11 02:02:50;;;;;;;4.93;1.50;;;15.40;99.90;;;;;;5058494;28;20085;-68
2023/07/11 02:05:15;;;;;;;5.20;1.55;;;15.40;99.90;;;;;;5075637;28;20138;-66
2023/07/11 02:07:41;;;;;;;5.72;1.70;;;15.40;99.90;;;;;;5075090;28;20043;-66
2023/07/11 02:10:08;;;;;;;3.47;1.52;;;15.40;99.90;;;;;;5058086;28;20056;-66
2023/07/11 02:12:34;;;;;;;7.75;1.60;;;15.40;99.90;;;;;;5058128;28;20401;-67
2023/07/11 02:15:00;;;;;;;6.88;1.70;;;15.40;99.90;;;;;;5073975;28;20083;-65
2023/07/11 02:17:25;;;;;;;10.43;1.63;;;15.40;99.90;;;;;;5073454;28;20135;-68
2023/07/11 02:19:51;;;;;;;6.28;1.85;;;15.30;99.90;;;;;;5073736;28;20732;-68
2023/07/11 02:22:17;;;;;;;3.88;1.50;;;15.20;99.90;;;;;;5051320;28;20056;-66
2023/07/11 02:24:43;;;;;;;4.40;1.80;;;15.20;99.90;;;;;;5075337;28;20090;-68
2023/07/11 02:27:09;;;;;;;5.75;1.90;;;15.20;99.90;;;;;;5075183;28;20105;-68
2023/07/11 02:29:35;;;;;;;3.78;1.70;;;15.10;99.90;;;;;;5058335;28;20048;-66
2023/07/11 02:32:01;;;;;;;6.07;1.77;;;15.10;99.90;;;;;;5074307;28;20048;-67
2023/07/11 02:34:26;;;;;;;8.85;2.38;;;15.10;99.90;;;;;;5075243;28;20071;-65
2023/07/11 02:36:52;;;;;;;4.18;1.77;;;15.10;99.90;;;;;;5059306;28;20051;-69
2023/07/11 02:39:18;;;;;;;6.85;1.67;;;15.10;99.90;;;;;;5074134;28;20493;-68
2023/07/11 02:41:44;;;;;;;7.90;2.17;;;15.10;99.90;;;;;;5075234;28;20043;-68
2023/07/11 02:44:10;;;;;;;6.25;1.98;;;15.10;99.90;;;;;;5081756;28;20567;-66
2023/07/11 02:46:36;;;;;;;7.57;1.90;;;15.10;99.90;;;;;;5074684;28;20055;-67
2023/07/11 02:49:02;;;;;;;7.22;1.63;;;15.10;99.90;;;;;;5075330;28;20687;-68
2023/07/11 02:51:28;;;;;;;6.95;2.13;;;15.10;99.90;;;;;;5056903;28;20406;-68
2023/07/11 02:53:54;;;;;;;7.13;2.83;;;15.10;99.90;;;;;;5066504;28;20340;-65
2023/07/11 02:56:20;;;;;;;7.43;2.25;;;15.10;99.90;;;;;;5071897;28;20130;-68
2023/07/11 02:58:47;;;;;;;9.80;2.50;;;15.10;99.90;;;;;;5060696;28;20049;-64
2023/07/11 03:01:13;;;;;;;5.63;1.98;;;15.20;99.90;;;;;;5074386;28;20378;-63
2023/07/11 03:03:39;;;;;;;6.15;3.20;;;15.20;99.90;;;;;;5074858;28;20079;-66
2023/07/11 03:06:04;;;;;;;8.07;2.10;;;15.80;99.90;;;;;;5074772;28;20127;-66
2023/07/11 03:08:31;;;;;;;6.95;2.30;;;15.20;99.90;;;;;;5084480;28;20174;-67
2023/07/11 03:10:59;;;;;;;8.73;2.28;;;15.30;99.90;;;;;;5077094;28;20055;-68
2023/07/11 03:13:26;;;;;;;6.63;2.10;;;15.30;99.90;;;;;;5094149;28;20400;-65
2023/07/11 03:15:52;;;;;;;6.03;2.17;;;15.40;99.90;;;;;;5111595;28;20102;-67
2023/07/11 03:18:18;;;;;;;9.57;2.53;;;16.70;99.90;;;;;;5094635;28;20097;-67
2023/07/11 03:20:44;;;;;;;8.23;2.47;;;15.40;99.90;;;;;;5111581;28;20372;-69
2023/07/11 03:23:12;;;;;;;7.05;2.25;;;15.40;99.90;;;;;;5106830;28;20154;-68
2023/07/11 03:25:39;;;;;;;6.35;2.55;;;15.40;99.90;;;;;;5091082;28;20056;-65
2023/07/11 03:28:05;;;;;;;8.77;2.47;;;15.40;99.90;;;;;;5111545;28;20051;-67
2023/07/11 03:30:32;;;;;;;6.95;2.72;;;15.40;99.90;;;;;;5094024;28;20373;-68
2023/07/11 03:32:58;;;;;;;10.32;2.60;;;15.40;99.90;;;;;;5090633;28;20083;-67
2023/07/11 03:35:23;;;;;;;8.77;2.78;;;15.40;99.90;;;;;;5095044;28;20086;-68
2023/07/11 03:37:49;;;;;;;9.40;3.38;;;15.50;99.90;;;;;;5066681;28;20052;-64
2023/07/11 03:40:15;;;;;;;14.25;2.78;;;15.50;99.90;;;;;;5088720;28;20442;-68
2023/07/11 03:42:41;;;;;;;9.60;3.72;;;15.60;99.90;;;;;;5094037;28;20079;-69
2023/07/11 03:45:07;;;;;;;7.45;2.72;;;15.60;99.90;;;;;;5111937;28;20118;-65
2023/07/11 03:47:33;;;;;;;8.20;3.20;;;15.70;99.90;;;;;;5109584;28;20109;-67
2023/07/11 03:49:59;;;;;;;4.38;2.53;;;15.80;99.90;;;;;;5094260;28;20055;-67
2023/07/11 03:52:25;;;;;;;8.35;3.10;;;15.90;99.90;;;;;;5072330;28;20067;-66
2023/07/11 03:54:50;;;;;;;7.00;3.10;;;16.00;99.90;;;;;;5094692;28;20193;-67
2023/07/11 03:57:17;;;;;;;5.68;2.83;;;16.00;99.90;;;;;;5098945;27;20860;-66
2023/07/11 03:59:43;;;;;;;6.13;2.40;;;16.10;99.90;;;;;;5109728;27;20050;-67
2023/07/11 04:02:08;;;;;;;10.30;2.72;;;16.20;99.90;;;;;;5082567;28;20444;-65
2023/07/11 04:04:34;;;;;;;8.43;2.95;;;16.30;99.90;;;;;;5108511;27;20536;-68
2023/07/11 04:07:00;;;;;;;5.57;2.50;;;16.30;99.90;;;;;;5081297;28;20069;-65
2023/07/11 04:09:26;;;;;;;7.00;3.00;;;16.40;99.90;;;;;;5096780;28;20051;-68
2023/07/11 04:11:51;;;;;;;6.03;2.70;;;16.40;99.90;;;;;;5097682;28;20373;-67
2023/07/11 04:14:18;;;;;;;6.78;2.22;;;16.40;99.90;;;;;;5081209;28;20125;-67
2023/07/11 04:16:44;;;;;;;7.03;2.30;;;16.50;99.90;;;;;;5097728;28;20062;-68
2023/07/11 04:19:09;;;;;;;6.82;2.72;;;16.50;99.90;;;;;;5111374;27;20044;-68
2023/07/11 04:21:36;;;;;;;6.57;2.40;;;16.60;99.90;;;;;;5095886;28;20485;-63
2023/07/11 04:24:01;;;;;;;9.55;3.10;;;16.70;99.90;;;;;;5070606;28;20555;-66
2023/07/11 04:26:28;;;;;;;13.55;4.07;;;16.70;99.90;;;;;;5080796;28;20108;-66
2023/07/11 04:28:53;;;;;;;10.77;3.10;;;16.70;99.90;;;;;;5111909;27;20102;-68
2023/07/11 04:31:19;;;;;;;6.03;2.42;;;16.80;99.90;;;;;;5075729;28;20826;-65
2023/07/11 04:33:45;;;;;;;7.28;2.63;;;17.10;99.90;;;;;;5113375;27;20355;-67
2023/07/11 04:36:15;;;;;;;9.25;2.70;;;17.70;99.90;;;;;;5114674;27;20058;-68
2023/07/11 04:38:44;;;;;;;7.10;2.63;;;18.30;99.90;;;;;;5080421;28;20107;-67
2023/07/11 04:41:10;;;;;;;7.70;2.78;;;18.90;99.90;;;;;;5095210;27;20545;-68
2023/07/11 04:43:36;;;;;;;6.63;2.28;;;19.20;99.90;;;;;;5080339;28;20488;-65
2023/07/11 04:46:06;;;;;;;6.63;2.05;;;19.20;99.90;;;;;;5063598;28;20047;-65
2023/07/11 04:48:33;;;;;;;4.13;1.85;;;19.40;99.90;;;;;;5091134;28;20130;-67
2023/07/11 04:51:02;;;;;;;8.20;2.25;;;19.30;99.90;;;;;;5077431;28;20050;-66
2023/07/11 04:53:29;;;;;;;6.47;1.88;;;19.50;99.90;;;;;;5077804;28;20089;-67
2023/07/11 04:56:00;;;;;;;6.15;1.95;;;19.40;99.90;;;;;;5115536;27;20145;-67
2023/07/11 04:58:29;;;;;;;5.45;1.92;;;19.50;99.90;;;;;;5063186;28;20226;-68
2023/07/11 05:01:16;;;;;;;10.63;2.92;;;19.60;99.90;;;;;;5065241;28;20425;-67
2023/07/11 05:03:44;;;;;;;5.57;1.88;;;19.50;99.80;;;;;;5111541;27;20055;-64
2023/07/11 05:06:12;;;;;;;7.55;2.08;;;19.60;99.90;;;;;;5080056;28;20051;-69
2023/07/11 05:08:38;;;;;;;6.03;2.20;;;19.70;99.70;;;;;;5097014;28;20051;-68
2023/07/11 05:11:13;;;;;;;7.25;2.13;;;20.10;99.50;;;;;;5113618;27;20556;-67
2023/07/11 05:13:39;;;;;;;7.40;1.92;;;20.40;98.80;;;;;;5094574;28;20050;-68
2023/07/11 05:16:12;;;;;;;5.55;2.00;;;20.40;98.70;;;;;;5108630;27;20257;-64
2023/07/11 05:18:41;;;;;;;7.72;1.98;;;20.40;98.40;;;;;;5076757;28;20858;-63
2023/07/11 05:21:11;;;;;;;6.15;1.95;;;20.70;98.00;;;;;;5080423;28;20800;-66
2023/07/11 05:23:38;;;;;;;10.48;2.22;;;20.40;97.80;;;;;;5062025;28;20047;-66
2023/07/11 05:26:05;;;;;;;8.70;2.35;;;20.30;97.80;;;;;;5060782;28;20119;-66
2023/07/11 05:28:32;;;;;;;6.07;2.05;;;20.40;97.80;;;;;;5068023;28;20177;-66
2023/07/11 05:31:01;;;;;;;6.93;2.20;;;23.00;98.30;;;;;;5113289;27;20060;-67
2023/07/11 05:33:28;;;;;;;4.18;1.80;;;20.50;97.60;;;;;;5096005;28;20473;-65
2023/07/11 05:36:15;;;;;;;5.47;2.00;;;20.60;97.60;;;;;;5113458;27;20059;-65
2023/07/11 05:38:42;;;;;;;4.57;2.03;;;20.60;97.30;;;;;;5080057;28;20130;-66
2023/07/11 05:41:08;;;;;;;5.57;2.00;;;20.70;97.20;;;;;;5114215;27;20134;-66
2023/07/11 05:43:33;;;;;;;6.30;2.67;;;22.20;96.30;;;;;;5079160;28;20537;-67
2023/07/11 05:45:59;;;;;;;4.80;1.83;;;23.80;93.50;;;;;;5113934;27;20055;-63
2023/07/11 05:48:25;;;;;;;6.28;2.15;;;25.30;90.90;;;;;;5102359;27;20100;-67
2023/07/11 05:51:18;;;;;;;6.20;1.63;;;27.00;85.30;;;;;;5076738;28;20160;-65
2023/07/11 05:53:44;;;;;;;5.13;1.88;;;28.10;80.70;;;;;;5060389;28;20059;-66
2023/07/11 05:56:10;;;;;;;6.82;2.17;;;28.50;76.70;;;;;;5079300;28;20051;-66
2023/07/11 05:58:36;;;;;;;4.28;1.67;;;29.00;73.80;;;;;;5110133;27;20504;-65
2023/07/11 06:01:02;;;;;;;6.85;1.77;;;29.30;71.60;;;;;;5079398;28;20566;-67
2023/07/11 06:03:30;;;;;;;6.57;1.80;;;29.70;69.20;;;;;;5108639;27;20500;-67
2023/07/11 06:06:05;;;;;;;5.13;1.70;;;30.20;67.50;;;;;;5092703;28;20166;-67
2023/07/11 06:08:32;;;;;;;6.28;2.15;;;30.40;66.20;;;;;;5092728;28;20061;-68
2023/07/11 06:11:00;;;;;;;5.53;1.75;;;30.90;65.40;;;;;;5111752;27;20055;-67
2023/07/11 06:13:27;;;;;;;5.47;1.48;;;30.90;64.10;;;;;;5102713;27;20062;-68
2023/07/11 06:16:05;;;;;;;3.92;1.20;;;31.70;63.50;;;;;;5064981;28;20051;-68
2023/07/11 06:18:34;;;;;;;5.22;1.23;;;32.60;63.00;;;;;;5084409;28;20051;-68
2023/07/11 06:21:00;;;;;;;6.63;1.42;;;33.60;61.30;;;;;;5077092;28;20054;-67
2023/07/11 06:23:25;;;;;;;4.97;1.10;;;34.30;59.00;;;;;;5075050;28;20039;-67
2023/07/11 06:25:51;;;;;;;4.00;1.27;;;34.70;57.20;;;;;;5111832;27;20194;-66
2023/07/11 06:28:17;;;;;;;4.43;2.00;;;33.40;55.30;;;;;;5111575;27;20039;-67
2023/07/11 06:30:43;;;;;;;5.38;2.28;;;35.10;56.40;;;;;;5094722;28;20047;-66
2023/07/11 06:33:10;;;;;;;5.85;1.73;;;35.80;55.20;;;;;;5095278;28;20074;-66
2023/07/11 06:35:41;;;;;;;5.38;1.35;;;36.50;53.80;;;;;;5075882;28;20067;-65
2023/07/11 06:38:08;;;;;;;4.80;1.30;;;37.20;53.00;;;;;;5060408;28;20047;-66
2023/07/11 06:40:34;;;;;;;4.10;1.15;;;37.10;52.90;;;;;;5058336;28;20786;-67
2023/07/11 06:43:00;;;;;;;4.38;1.40;;;37.70;51.30;;;;;;5061366;28;20055;-66
2023/07/11 06:45:26;;;;;;;7.32;1.73;;;37.70;51.20;;;;;;5100048;27;20738;-66
2023/07/11 06:47:51;;;;;;;4.10;1.05;;;37.70;50.60;;;;;;5106379;27;20048;-69
2023/07/11 06:50:18;;;;;;;5.25;1.15;;;38.30;49.70;;;;;;5061141;28;20225;-66
2023/07/11 06:52:44;;;;;;;3.40;0.80;;;38.60;49.10;;;;;;5091254;28;20443;-68
2023/07/11 06:55:10;;;;;;;5.30;1.35;;;38.20;48.90;;;;;;5076764;28;20043;-69
2023/07/11 06:57:36;;;;;;;6.32;1.23;;;38.00;49.20;;;;;;5078592;28;20107;-67
2023/07/11 07:00:02;;;;;;;4.82;1.13;;;37.60;48.20;;;;;;5096606;28;20449;-66
2023/07/11 07:02:28;;;;;;;4.75;1.23;;;37.30;48.00;;;;;;5076046;28;20035;-66
2023/07/11 07:04:55;;;;;;;4.68;0.85;;;37.70;48.30;;;;;;5066773;28;20067;-67
2023/07/11 07:07:21;;;;;;;4.25;0.88;;;37.80;47.70;;;;;;5094215;28;20051;-68
2023/07/11 07:09:47;;;;;;;2.38;0.73;;;37.70;47.80;;;;;;5084690;28;20524;-67
2023/07/11 07:12:16;;;;;;;4.03;1.25;;;37.20;49.10;;;;;;5070849;28;20063;-66
2023/07/11 07:14:42;;;;;;;3.83;0.90;;;36.80;48.50;;;;;;5073800;28;20537;-67
2023/07/11 07:17:08;;;;;;;4.30;0.90;;;36.40;48.70;;;;;;5074049;28;20412;-66
2023/07/11 07:19:33;;;;;;;3.30;0.80;;;36.40;48.70;;;;;;5074406;28;20044;-66
2023/07/11 07:21:59;;;;;;;5.35;1.50;;;36.40;48.80;;;;;;5063640;28;20054;-66
2023/07/11 07:24:25;;;;;;;1.95;0.60;;;36.30;48.60;;;;;;5049512;28;20052;-67
2023/07/11 07:26:51;;;;;;;4.97;1.27;;;36.10;49.00;;;;;;5080431;28;20463;-68
2023/07/11 07:29:18;;;;;;;3.95;1.00;;;35.70;49.00;;;;;;5074998;28;20036;-66
2023/07/11 07:31:44;;;;;;;4.50;1.25;;;36.20;49.30;;;;;;5075719;28;20048;-69
2023/07/11 07:34:09;;;;;;;3.35;0.90;;;36.90;48.80;;;;;;5058187;28;20040;-65
2023/07/11 07:36:35;;;;;;;2.72;0.75;;;37.60;48.20;;;;;;5072456;28;20060;-66
2023/07/11 07:39:01;;;;;;;3.45;1.02;;;37.50;47.70;;;;;;5068177;28;20137;-68
2023/07/11 07:41:27;;;;;;;6.05;1.40;;;37.40;47.70;;;;;;5078788;28;20044;-66
2023/07/11 07:43:53;;;;;;;6.32;1.30;;;37.70;46.90;;;;;;5079055;28;20398;-69
2023/07/11 07:46:19;;;;;;;5.63;1.15;;;37.30;47.00;;;;;;5077564;28;20055;-67
2023/07/11 07:48:45;;;;;;;7.05;1.42;;;36.90;47.90;;;;;;5075063;28;20094;-69
2023/07/11 07:51:15;;;;;;;3.15;1.17;;;36.90;48.40;;;;;;5062070;28;20056;-69
2023/07/11 07:53:42;;;;;;;5.15;1.33;;;36.60;48.10;;;;;;5056864;28;20342;-67
2023/07/11 07:56:14;;;;;;;3.90;1.05;;;36.20;49.00;;;;;;5060787;28;20071;-68
2023/07/11 07:58:40;;;;;;;6.60;1.33;;;35.90;48.60;;;;;;5076290;28;20052;-69
2023/07/11 08:01:07;;;;;;;4.32;1.13;;;35.50;50.00;;;;;;5060376;28;20394;-65
2023/07/11 08:03:36;;;;;;;4.28;1.15;;;35.20;50.40;;;;;;5059500;28;20044;-65
2023/07/11 08:06:02;;;;;;;5.85;1.63;;;35.40;49.60;;;;;;5077439;28;20074;-66
2023/07/11 08:08:29;;;;;;;3.28;0.70;;;35.70;49.00;;;;;;5085595;28;20097;-65
2023/07/11 08:10:54;;;;;;;2.95;0.80;;;35.40;49.60;;;;;;5114204;27;20160;-69
2023/07/11 08:13:20;;;;;;;3.33;1.17;;;35.40;50.00;;;;;;5080162;28;20137;-70
2023/07/11 08:15:47;;;;;;;3.55;1.30;;;35.40;49.80;;;;;;5112294;27;20453;-65
2023/07/11 08:18:13;;;;;;;4.40;1.02;;;36.20;49.90;;;;;;5062951;28;20051;-68
2023/07/11 08:20:40;;;;;;;4.28;1.00;;;36.60;50.00;;;;;;5057444;28;20035;-67
2023/07/11 08:23:05;;;;;;;4.32;1.02;;;37.10;50.20;;;;;;5059624;28;20086;-69
2023/07/11 08:25:32;;;;;;;3.55;0.82;;;37.70;49.10;;;;;;5078750;28;20059;-67
2023/07/11 08:27:58;;;;;;;2.20;0.90;;;39.60;49.20;;;;;;5079273;28;20063;-66
2023/07/11 08:30:24;;;;;;;4.43;1.00;;;38.00;47.30;;;;;;5110474;27;20055;-69
2023/07/11 08:33:28;;;;;;;4.47;0.90;;;38.00;47.10;;;;;;5097952;28;20416;-68
2023/07/11 08:36:47;;;;;;;3.42;0.55;;;38.40;47.40;;;;;;5078053;27;20426;-63
2023/07/11 08:39:13;;;;;;;3.63;1.00;;;38.40;46.70;;;;;;5051372;28;20055;-67
2023/07/11 09:01:16;;;;;;;3.13;1.17;;;;;;;;;;5056151;28;20091;-68
2023/07/11 09:05:07;;;;;;;5.57;1.67;;;38.10;46.30;;;;;;5065992;28;20052;-68
2023/07/11 09:07:39;;;;;;;4.43;0.77;;;37.80;45.90;;;;;;5065016;28;20290;-67
2023/07/11 09:10:17;;;;;;;6.43;1.17;;;;;;;;;;5038132;28;20052;-67
2023/07/11 09:16:06;;;;;;;6.30;1.35;;;;;;;;;;5057495;28;20054;-68
2023/07/11 09:18:32;;;;;;;5.05;1.60;;;;;;;;;;5027663;28;20489;-64
2023/07/11 09:21:08;;;;;;;5.10;0.80;;;35.90;47.60;;;;;;5026025;28;20091;-66
2023/07/11 09:23:43;;;;;;;5.93;1.25;;;;;;;;;;5050336;27;20102;-70
2023/07/11 09:26:17;;;;;;;2.67;0.70;;;35.10;47.70;;;;;;5037185;27;20044;-68
2023/07/11 09:29:36;;;;;;;4.78;0.80;;;;;;;;;;5053785;28;20492;-66
2023/07/11 09:32:09;;;;;;;2.88;0.55;;;34.40;49.20;;;;;;5042206;28;20095;-67
2023/07/11 09:34:42;;;;;;;2.42;0.70;;;;;;;;;;4990627;28;20466;-67
2023/07/11 09:37:20;;;;;;;3.97;0.88;;;34.10;50.20;;;;;;5023115;28;20076;-66
2023/07/11 09:39:58;;;;;;;4.95;0.80;;;;;;;;;;5009300;28;20804;-68
2023/07/11 09:42:38;;;;;;;4.05;1.08;;;;;;;;;;5000382;28;20060;-68
2023/07/11 09:45:12;;;;;;;5.22;1.13;;;;;;;;;;4997541;28;20187;-67
2023/07/11 09:47:42;;;;;;;3.05;0.68;;;35.70;53.00;;;;;;4992045;28;20057;-64
2023/07/11 09:50:35;;;;;;;5.30;1.30;;;35.70;50.20;;;;;;4991495;28;20057;-63
2023/07/11 09:53:02;;;;;;;5.55;0.98;;;35.30;50.00;;;;;;4991833;28;20308;-64
2023/07/11 09:55:34;;;;;;;8.32;1.27;;;34.90;50.50;;;;;;5002744;28;20064;-66
2023/07/11 09:58:01;;;;;;;4.22;0.70;;;34.70;51.20;;;;;;5013202;28;20155;-68
2023/07/11 10:00:29;;;;;;;3.45;0.80;;;34.40;51.00;;;;;;4993274;28;20060;-65
2023/07/11 10:03:01;;;;;;;4.13;0.77;;;33.70;51.30;;;;;;4987747;28;20122;-67
2023/07/11 10:05:30;;;;;;;5.13;0.85;;;33.90;51.90;;;;;;5006921;28;20518;-68
2023/07/11 10:08:13;;;;;;;2.47;0.88;;;34.70;51.60;;;;;;4996440;28;20975;-62
2023/07/11 10:10:50;;;;;;;5.07;1.30;;;35.30;50.60;;;;;;4998359;28;20323;-68
2023/07/11 10:13:17;;;;;;;4.25;0.70;;;37.20;51.10;;;;;;4973911;28;20092;-66
2023/07/11 10:15:46;;;;;;;2.42;0.50;;;35.50;49.20;;;;;;4997749;28;20053;-67
2023/07/11 10:18:17;;;;;;;6.40;0.90;;;35.70;48.50;;;;;;5014835;28;20194;-63
2023/07/11 10:20:46;;;;;;;3.45;1.02;;;35.60;47.20;;;;;;4997716;28;20096;-64
2023/07/11 10:23:16;;;;;;;3.08;0.60;;;36.00;52.90;;;;;;4994387;28;20053;-66
2023/07/11 10:25:45;;;;;;;4.40;0.70;;;35.70;48.20;;;;;;5007544;28;20506;-67
2023/07/11 10:28:31;;;;;;;4.70;0.60;;;35.70;48.50;;;;;;5009149;28;20370;-66
2023/07/11 10:31:12;;;;;;;2.88;0.40;;;35.70;53.30;;;;;;5020630;28;20872;-67
2023/07/11 10:34:05;;;;;;;3.78;1.77;;;35.70;48.60;;;;;;5013192;28;20073;-68
2023/07/11 10:36:46;;;;;;;3.80;1.25;;;35.80;48.40;;;;;;5011656;28;20337;-67
2023/07/11 10:39:19;;;;;;;;;;;35.90;49.20;;;;;;4987966;28;20507;-67
2023/07/11 10:42:06;;;;;;;4.05;0.70;;;35.90;48.00;;;;;;5015480;28;20014;-63
2023/07/11 10:44:47;;;;;;;3.50;0.45;;;34.80;47.20;;;;;;5009320;28;20064;-70
2023/07/11 10:47:13;;;;;;;2.83;0.57;;;;;;;;;;4997730;28;20059;-69
2023/07/11 10:49:47;;;;;;;4.47;1.15;;;36.00;46.60;;;;;;5001147;28;20289;-71
2023/07/11 10:52:24;;;;;;;4.72;0.70;;;35.60;45.70;;;;;;5028530;28;20053;-67
2023/07/11 10:54:56;;;;;;;3.15;0.63;;;35.10;49.70;;;;;;4992088;28;20803;-65
2023/07/11 10:57:42;;;;;;;3.28;0.52;;;34.40;48.80;;;;;;5013197;28;20270;-61
2023/07/11 11:00:31;;;;;;;1.98;0.50;;;34.00;49.50;;;;;;5010953;28;20423;-66
2023/07/11 11:03:25;;;;;;;4.55;0.60;;;33.50;49.90;;;;;;5017338;28;20064;-66
2023/07/11 11:05:57;;;;;;;2.50;0.55;;;32.90;49.60;;;;;;5015670;28;20565;-63
2023/07/11 11:08:53;;;;;;;4.35;0.60;;;32.70;51.40;;;;;;5018236;28;20142;-67
2023/07/11 11:11:23;;;;;;;5.80;0.75;;;;;;;;;;5022302;28;20068;-67
2023/07/11 11:14:07;;;;;;;3.45;0.80;;;;;;;;;;5035861;28;20332;-67
2023/07/11 11:16:45;;;;;;;5.00;0.60;;;31.80;53.10;;;;;;5011085;28;20247;-66
2023/07/11 11:19:14;;;;;;;2.33;0.50;;;;;;;;;;5007704;28;20063;-67
2023/07/11 11:21:54;;;;;;;3.33;0.70;;;30.80;57.00;;;;;;5014591;28;20383;-68
2023/07/11 11:24:20;;;;;;;2.05;0.63;;;;;;;;;;5020800;28;20333;-67
2023/07/11 11:26:46;;;;;;;4.40;0.70;;;;;;;;;;5020099;28;20068;-67
2023/07/11 11:29:35;;;;;;;5.88;0.85;;;30.00;56.00;;;;;;5021432;28;20114;-67
2023/07/11 11:32:25;;;;;;;2.55;0.63;;;30.00;56.50;;;;;;5026935;28;20092;-66
2023/07/11 11:34:55;;;;;;;1.67;0.47;;;;;;;;;;5000979;28;20136;-68
2023/07/11 11:37:40;;;;;;;4.00;0.60;;;;;;;;;;5024635;28;20352;-67
2023/07/11 11:40:10;;;;;;;3.22;0.60;;;;;;;;;;5017807;28;20136;-60
2023/07/11 11:42:39;;;;;;;2.60;0.70;;;;;;;;;;5002120;28;20594;-67
2023/07/11 11:45:17;;;;;;;2.95;0.50;;;29.90;56.80;;;;;;5000774;28;20072;-64
2023/07/11 11:47:44;;;;;;;6.10;0.88;;;;;;;;;;5017847;28;20136;-61
2023/07/11 11:50:18;;;;;;;6.70;0.60;;;;;;;;;;5021483;28;20656;-66
2023/07/11 11:52:44;;;;;;;2.40;0.50;;;;;;;;;;5009149;28;20542;-66
2023/07/11 11:55:31;;;;;;;6.85;1.70;;;;;;;;;;5003159;28;20052;-65
2023/07/11 11:57:57;;;;;;;2.47;0.47;;;;;;;;;;4992497;28;20064;-64
2023/07/11 12:00:32;;;;;;;5.40;0.50;;;;;;;;;;5013522;28;20060;-63
2023/07/11 12:02:58;;;;;;;4.70;0.63;;;;;;;;;;5006305;28;20560;-67
2023/07/11 12:05:24;;;;;;;2.30;0.85;;;;;;;;;;5021034;28;20491;-64
2023/07/11 12:08:26;;;;;;;1.65;0.60;;;29.70;58.80;;;;;;5035496;28;20049;-66
2023/07/11 12:11:19;;;;;;;4.80;0.60;;;30.00;58.50;;;;;;4999213;28;20060;-65
2023/07/11 12:14:06;;;;;;;3.40;0.50;;;29.70;58.50;;;;;;5017604;28;20187;-66
2023/07/11 12:16:32;;;;;;;4.05;0.60;;;29.50;58.50;;;;;;5016688;28;20576;-66
2023/07/11 12:19:01;;;;;;;3.70;0.40;;;29.60;57.90;;;;;;4999597;28;20090;-66
2023/07/11 12:21:40;;;;;;;4.20;0.55;;;29.60;58.50;;;;;;4999709;28;20093;-66
2023/07/11 12:24:23;;;;;;;2.70;0.50;;;29.60;59.40;;;;;;5004701;28;20490;-67
2023/07/11 12:26:51;;;;;;;4.38;0.70;;;30.10;59.90;;;;;;5008647;28;20264;-67
2023/07/11 12:29:37;;;;;;;4.25;0.45;;;29.60;58.70;;;;;;5022244;28;20056;-65
2023/07/11 12:32:31;;;;;;;3.33;0.60;;;29.60;58.50;;;;;;4995609;28;20049;-64
2023/07/11 12:35:04;;;;;;;1.67;0.50;;;29.50;58.80;;;;;;5021242;28;20102;-67
2023/07/11 12:37:32;;;;;;;2.58;0.60;;;;;;;;;;5017503;28;20075;-66
2023/07/11 12:40:26;;;;;;;4.50;0.50;;;29.50;58.60;;;;;;5011972;28;20053;-65
2023/07/11 12:42:57;;;;;;;6.47;0.50;;;;;;;;;;5025090;28;20518;-68
2023/07/11 12:45:25;;;;;;;1.75;0.50;;;;;;;;;;5021297;28;20104;-64
2023/07/11 12:48:01;;;;;;;2.58;0.40;;;;;;;;;;5017424;28;20057;-64
2023/07/11 12:50:34;;;;;;;2.20;0.73;;;;;;;;;;5042984;28;20057;-65
2023/07/11 12:53:04;;;;;;;2.42;0.50;;;;;;;;;;5043997;28;20425;-67
2023/07/11 12:55:30;;;;;;;2.43;0.50;;;;;;;;;;5020663;28;20037;-65
2023/07/11 12:57:57;;;;;;;3.58;0.98;;;;;;;;;;5041499;28;20041;-64
2023/07/11 13:00:26;;;;;;;2.47;0.30;;;29.10;59.90;;;;;;5029960;28;20103;-67
2023/07/11 13:03:03;;;;;;;2.58;0.40;;;28.70;60.20;;;;;;5027977;28;20138;-64
2023/07/11 13:05:30;;;;;;;3.88;0.55;;;;;;;;;;5009545;28;20636;-65
2023/07/11 13:08:06;;;;;;;3.20;0.95;;;;;;;;;;5025032;28;20053;-64
2023/07/11 13:10:32;;;;;;;2.28;0.47;;;;;;;;;;5018717;28;20045;-62
2023/07/11 13:12:58;;;;;;;2.20;0.60;;;;;;;;;;5017759;28;20148;-66
2023/07/11 13:15:26;;;;;;;1.63;0.50;;;;;;;;;;5024478;28;20037;-62
2023/07/11 13:21:18;;;;;;;3.28;0.70;;;;;;;;;;5023570;28;20390;-64
2023/07/11 13:23:55;;;;;;;3.03;0.70;;;;;;;;;;5026872;28;20055;-67
2023/07/11 13:26:24;;;;;;;2.42;0.63;;;;;;;;;;5010952;28;20044;-68
2023/07/11 13:29:09;;;;;;;3.83;0.63;;;;;;;;;;5038415;28;20041;-63
2023/07/11 13:31:36;;;;;;;2.80;0.68;;;;;;;;;;5039571;28;20864;-63
2023/07/11 13:34:03;;;;;;;4.15;0.60;;;;;;;;;;5040154;28;20459;-66
2023/07/11 13:36:30;;;;;;;2.20;0.90;;;28.90;60.30;;;;;;5044054;28;20056;-67
2023/07/11 13:39:03;;;;;;;3.90;0.90;;;29.20;61.40;;;;;;5021885;28;20065;-67
2023/07/11 13:41:32;;;;;;;4.30;0.93;;;;;;;;;;5004725;28;20048;-63
2023/07/11 13:44:00;;;;;;;2.72;0.75;;;;;;;;;;5026275;28;20111;-65
2023/07/11 13:46:28;;;;;;;2.45;0.70;;;;;;;;;;5027769;28;20048;-66